East Fishkill, New York
Current Conditions -  °F | °C
As of 8:53 PM on Wednesday 26 Nov 2014 (Local Time) from KPOU Reporting Station
Light Snow Light Snow  
Wind Chill: 25°   Ceiling: 1200
Heat Index: 34°   Visibility: 2.5mi
Dew Point: 30°   Wind: 12mph
Humidity: 85%   Direction: 350°N
Pressure: 29.85"   Gusts: 21mph
Location:  41.562°N, 73.7865°W
Report Text: KPOU 270153Z 35010G18KT 2 1/2SM -SN BR OVC012 01/M01 A2985 RMK AO2 SLP107 P0000 T00111011
Loading
Personal Weather Stations






























Interactive Weather Map New forecast layout! Learn more

10-Day Weather Forecast

Advertisements
Track Severe Weather on mobile